Time;durP1;ratioP1;P1;durP2;ratioP2;P2;SDS_P1;SDS_P2;PMS_P1;PMS_P2;Temp;Humidity;BMP_temperature;BMP_pressure;BME280_temperature;BME280_humidity;BME280_pressure;Samples;Min_cycle;Max_cycle;Signal;HPM_P1;HPM_P2
2023/09/14 00:01:08;;;;;;;6.30;3.42;;;;;;;;;;4865877;29;20549;-76
2023/09/14 00:03:34;;;;;;;9.82;3.72;;;;;;;;;;4869529;29;20108;-76
2023/09/14 00:06:00;;;;;;;8.77;3.95;;;;;;;;;;4870391;29;20052;-76
2023/09/14 00:08:30;;;;;;;7.15;3.83;;;;;;;;;;4865578;29;20565;-76
2023/09/14 00:10:57;;;;;;;7.78;3.78;;;;;;;;;;4870720;29;20056;-75
2023/09/14 00:13:23;;;;;;;7.47;4.05;;;;;;;;;;4870721;29;20179;-76
2023/09/14 00:15:49;;;;;;;7.53;3.88;;;;;;;;;;4840343;29;20100;-76
2023/09/14 00:18:16;;;;;;;8.25;3.60;;;;;;;;;;4869155;29;20047;-75
2023/09/14 00:20:42;;;;;;;8.90;3.55;;;;;;;;;;4870265;29;20075;-75
2023/09/14 00:23:08;;;;;;;9.43;3.72;;;;;;;;;;4871552;29;20069;-76
2023/09/14 00:25:34;;;;;;;5.72;3.53;;;;;;;;;;4854508;29;20135;-76
2023/09/14 00:28:00;;;;;;;6.93;3.53;;;;;;;;;;4875458;29;20053;-76
2023/09/14 00:30:26;;;;;;;8.77;3.50;;;;;;;;;;4867995;29;20086;-76
2023/09/14 00:32:52;;;;;;;9.43;3.90;;;;;;;;;;4864876;29;20181;-76
2023/09/14 00:35:19;;;;;;;6.32;3.92;;;;;;;;;;4874439;29;20049;-75
2023/09/14 00:37:45;;;;;;;9.85;4.00;;;;;;;;;;4866457;29;20445;-74
2023/09/14 00:40:12;;;;;;;7.82;4.38;;;;;;;;;;4865270;29;20053;-74
2023/09/14 00:42:40;;;;;;;6.55;3.72;;;;;;;;;;4866772;29;20040;-75
2023/09/14 00:45:07;;;;;;;9.02;3.95;;;;;;;;;;4867422;29;20068;-75
2023/09/14 00:47:33;;;;;;;5.97;3.67;;;;;;;;;;4863787;29;20060;-75
2023/09/14 00:49:59;;;;;;;6.65;4.10;;;;;;;;;;4866209;29;20049;-74
2023/09/14 00:52:25;;;;;;;7.93;4.20;;;;;;;;;;4863543;29;20108;-75
2023/09/14 00:54:51;;;;;;;8.00;4.32;;;;;;;;;;4865470;29;20044;-75
2023/09/14 00:57:17;;;;;;;11.13;4.57;;;;;;;;;;4862035;29;20049;-75
2023/09/14 00:59:45;;;;;;;6.63;3.80;;;;;;;;;;4864745;29;20123;-75
2023/09/14 01:02:11;;;;;;;10.57;4.97;;;;;;;;;;4863807;29;20052;-76
2023/09/14 01:04:38;;;;;;;8.13;3.88;;;;;;;;;;4863357;29;20671;-75
2023/09/14 01:07:04;;;;;;;11.45;4.20;;;;;;;;;;4881605;29;20525;-75
2023/09/14 01:09:30;;;;;;;8.43;3.90;;;;;;;;;;4867345;29;20041;-75
2023/09/14 01:11:56;;;;;;;13.65;4.10;;;;;;;;;;4866739;29;20044;-75
2023/09/14 01:14:27;;;;;;;7.75;4.03;;;;;;;;;;4843766;29;21393;-75
2023/09/14 01:17:02;;;;;;;7.13;4.03;;;;;;;;;;4869774;29;20051;-75
2023/09/14 01:20:01;;;;;;;7.65;3.83;;;;;;;;;;4871730;29;20473;-75
2023/09/14 01:22:35;;;;;;;8.65;4.00;;;;;;;;;;4866527;29;20060;-76
2023/09/14 01:25:09;;;;;;;4.93;3.60;;;;;;;;;;4867765;29;20132;-76
2023/09/14 01:27:35;;;;;;;11.77;3.78;;;;;;;;;;4866821;29;20057;-75
2023/09/14 01:30:03;;;;;;;6.55;3.60;;;;;;;;;;4867245;29;20051;-75
2023/09/14 01:32:29;;;;;;;4.25;3.47;;;;;;;;;;4866751;29;20178;-75
2023/09/14 01:34:55;;;;;;;9.57;4.22;;;;;;;;;;4864892;29;20053;-75
2023/09/14 01:37:22;;;;;;;4.57;3.42;;;;;;;;;;4867546;29;20092;-75
2023/09/14 01:39:48;;;;;;;7.07;3.60;;;;;;;;;;4867084;29;20128;-75
2023/09/14 01:42:14;;;;;;;7.55;3.25;;;;;;;;;;4864871;29;20045;-75
2023/09/14 01:44:40;;;;;;;4.47;3.20;;;;;;;;;;4862085;29;20158;-75
2023/09/14 01:47:07;;;;;;;7.82;3.38;;;;;;;;;;4867491;29;20815;-74
2023/09/14 01:49:33;;;;;;;3.58;3.28;;;;;;;;;;4863278;29;20062;-74
2023/09/14 01:51:59;;;;;;;5.28;3.38;;;;;;;;;;4867747;29;20045;-74
2023/09/14 01:54:25;;;;;;;4.60;3.10;;;;;;;;;;4867851;29;20433;-76
2023/09/14 01:56:51;;;;;;;4.32;3.00;;;;;;;;;;4865341;29;20205;-76
2023/09/14 01:59:17;;;;;;;3.70;2.80;;;;;;;;;;4866258;29;20202;-75
2023/09/14 02:01:43;;;;;;;4.68;3.03;;;;;;;;;;4868380;29;20053;-75
2023/09/14 02:04:09;;;;;;;7.20;2.70;;;;;;;;;;4866503;29;20080;-75
2023/09/14 02:06:36;;;;;;;5.22;2.95;;;;;;;;;;4863938;29;20052;-75
2023/09/14 02:09:03;;;;;;;6.90;3.00;;;;;;;;;;4866395;29;20083;-76
2023/09/14 02:11:29;;;;;;;5.28;2.97;;;;;;;;;;4846075;29;20048;-75
2023/09/14 02:13:55;;;;;;;10.73;3.05;;;;;;;;;;4865728;29;20049;-75
2023/09/14 02:16:21;;;;;;;8.68;3.35;;;;;;;;;;4869386;29;20048;-75
2023/09/14 02:18:47;;;;;;;5.88;2.53;;;;;;;;;;4868608;29;20044;-74
2023/09/14 02:21:16;;;;;;;8.32;3.30;;;;;;;;;;4869470;29;20112;-75
2023/09/14 02:23:42;;;;;;;6.80;3.10;;;;;;;;;;4864854;29;20417;-74
2023/09/14 02:26:08;;;;;;;8.68;3.50;;;;;;;;;;4852372;29;20159;-74
2023/09/14 02:28:34;;;;;;;6.13;3.00;;;;;;;;;;4871672;29;20060;-74
2023/09/14 02:31:06;;;;;;;6.38;3.17;;;;;;;;;;4867300;29;20060;-74
2023/09/14 02:33:32;;;;;;;5.88;3.20;;;;;;;;;;4868664;29;20076;-75
2023/09/14 02:35:58;;;;;;;5.80;3.25;;;;;;;;;;4853243;29;20442;-75
2023/09/14 02:38:24;;;;;;;7.60;3.17;;;;;;;;;;4866161;29;20406;-75
2023/09/14 02:40:50;;;;;;;6.00;3.33;;;;;;;;;;4860207;29;20072;-75
2023/09/14 02:43:16;;;;;;;5.95;3.60;;;;;;;;;;4865105;29;21911;-75
2023/09/14 02:45:42;;;;;;;8.25;3.53;;;;;;;;;;4865803;29;20056;-75
2023/09/14 02:48:08;;;;;;;5.97;3.22;;;;;;;;;;4867097;29;20040;-75
2023/09/14 02:50:34;;;;;;;5.80;3.20;;;;;;;;;;4876628;29;20500;-75
2023/09/14 02:53:00;;;;;;;8.38;3.92;;;;;;;;;;4868334;29;20572;-75
2023/09/14 02:55:26;;;;;;;4.05;2.95;;;;;;;;;;4864880;29;22052;-75
2023/09/14 02:57:52;;;;;;;8.80;3.50;;;;;;;;;;4862555;29;20044;-75
2023/09/14 03:00:19;;;;;;;8.90;3.33;;;;;;;;;;4865287;29;20044;-75
2023/09/14 03:02:46;;;;;;;5.68;3.30;;;;;;;;;;4867907;29;20083;-75
2023/09/14 03:05:12;;;;;;;4.75;2.90;;;;;;;;;;4866338;29;20064;-75
2023/09/14 03:07:38;;;;;;;10.00;3.45;;;;;;;;;;4868297;29;20055;-75
2023/09/14 03:10:05;;;;;;;4.88;3.50;;;;;;;;;;4865934;29;20052;-75
2023/09/14 03:12:31;;;;;;;6.35;3.38;;;;;;;;;;4861255;29;20063;-75
2023/09/14 03:14:57;;;;;;;5.47;2.97;;;;;;;;;;4865483;29;20124;-75
2023/09/14 03:17:23;;;;;;;14.10;3.83;;;;;;;;;;4863676;29;20283;-74
2023/09/14 03:19:49;;;;;;;9.57;3.60;;;;;;;;;;4867473;29;20438;-74
2023/09/14 03:22:15;;;;;;;6.75;3.53;;;;;;;;;;4857411;29;20401;-75
2023/09/14 03:24:41;;;;;;;8.70;3.83;;;;;;;;;;4841330;29;20056;-75
2023/09/14 03:27:07;;;;;;;7.72;3.58;;;;;;;;;;4864532;29;20438;-75
2023/09/14 03:29:34;;;;;;;7.30;3.30;;;;;;;;;;4867966;29;20438;-74
2023/09/14 03:32:00;;;;;;;5.82;3.13;;;;;;;;;;4859821;29;20048;-75
2023/09/14 03:34:26;;;;;;;8.25;3.88;;;;;;;;;;4867223;29;20063;-75
2023/09/14 03:36:53;;;;;;;6.10;3.38;;;;;;;;;;4867021;29;20060;-74
2023/09/14 03:39:19;;;;;;;4.57;3.08;;;;;;;;;;4866744;29;20135;-75
2023/09/14 03:41:45;;;;;;;9.43;3.55;;;;;;;;;;4865574;29;20496;-75
2023/09/14 03:44:11;;;;;;;5.72;3.67;;;;;;;;;;4869093;29;20734;-75
2023/09/14 03:46:37;;;;;;;4.55;3.50;;;;;;;;;;4865254;29;20524;-76
2023/09/14 03:49:06;;;;;;;10.20;3.58;;;;;;;;;;4867772;29;20052;-75
2023/09/14 03:51:32;;;;;;;6.05;3.58;;;;;;;;;;4864907;29;20053;-75
2023/09/14 03:53:58;;;;;;;4.97;3.50;;;;;;;;;;4866590;29;20052;-75
2023/09/14 03:56:24;;;;;;;8.73;3.40;;;;;;;;;;4865041;29;20048;-74
2023/09/14 03:58:50;;;;;;;5.45;3.40;;;;;;;;;;4862667;29;20084;-75
2023/09/14 04:01:16;;;;;;;5.93;4.18;;;;;;;;;;4861723;29;20037;-75
2023/09/14 04:03:42;;;;;;;9.13;3.65;;;;;;;;;;4859522;29;20044;-74
2023/09/14 04:06:08;;;;;;;3.83;3.28;;;;;;;;;;4856560;29;20063;-75
2023/09/14 04:08:35;;;;;;;4.10;3.28;;;;;;;;;;4860439;29;20048;-75
2023/09/14 04:11:01;;;;;;;6.50;3.45;;;;;;;;;;4847395;29;20096;-75
2023/09/14 04:13:34;;;;;;;7.90;3.55;;;;;;;;;;4864190;29;20044;-75
2023/09/14 04:16:02;;;;;;;4.13;3.55;;;;;;;;;;4877060;29;20052;-74
2023/09/14 04:18:29;;;;;;;7.03;3.15;;;;;;;;;;4869592;29;20040;-75
2023/09/14 04:20:55;;;;;;;7.57;2.97;;;;;;;;;;4867574;29;20076;-75
2023/09/14 04:23:22;;;;;;;6.13;3.15;;;;;;;;;;4866933;29;20627;-75
2023/09/14 04:25:48;;;;;;;5.90;3.53;;;;;;;;;;4866072;29;20049;-75
2023/09/14 04:28:15;;;;;;;5.70;3.00;;;;;;;;;;4863589;29;20048;-75
2023/09/14 04:30:45;;;;;;;6.97;3.20;;;;;;;;;;4867672;29;20040;-75
2023/09/14 04:33:12;;;;;;;7.35;2.92;;;;;;;;;;4865890;29;20056;-76
2023/09/14 04:35:38;;;;;;;3.92;2.83;;;;;;;;;;4862377;29;20075;-75
2023/09/14 04:38:05;;;;;;;8.38;3.50;;;;;;;;;;4861415;29;20084;-75
2023/09/14 04:40:31;;;;;;;7.97;3.33;;;;;;;;;;4861580;29;20096;-75
2023/09/14 04:42:57;;;;;;;6.97;3.50;;;;;;;;;;4859093;29;20056;-74
2023/09/14 04:45:23;;;;;;;4.00;3.35;;;;;;;;;;4865343;29;20129;-75
2023/09/14 04:47:49;;;;;;;6.43;3.03;;;;;;;;;;4866731;29;20136;-75
2023/09/14 04:50:15;;;;;;;11.82;3.35;;;;;;;;;;4866150;29;20044;-75
2023/09/14 04:52:41;;;;;;;6.95;3.03;;;;;;;;;;4862968;29;20147;-75
2023/09/14 04:55:07;;;;;;;12.90;3.25;;;;;;;;;;4868964;29;20081;-75
2023/09/14 04:57:33;;;;;;;13.75;3.35;;;;;;;;;;4863729;29;20052;-75
2023/09/14 04:59:59;;;;;;;11.35;2.92;;;;;;;;;;4866050;29;20481;-75
2023/09/14 05:02:27;;;;;;;6.78;3.20;;;;;;;;;;4868639;29;20092;-75
2023/09/14 05:04:53;;;;;;;8.07;3.05;;;;;;;;;;4872113;29;20550;-76
2023/09/14 05:07:21;;;;;;;4.40;3.08;;;;;;;;;;4870799;29;20063;-76
2023/09/14 05:09:47;;;;;;;7.78;3.30;;;;;;;;;;4874765;29;20048;-76
2023/09/14 05:12:13;;;;;;;11.77;3.45;;;;;;;;;;4873069;29;20048;-76
2023/09/14 05:14:39;;;;;;;24.30;3.30;;;;;;;;;;4871728;29;20060;-76
2023/09/14 05:17:06;;;;;;;10.00;3.08;;;;;;;;;;4871892;29;20044;-76
2023/09/14 05:19:32;;;;;;;3.83;2.80;;;;;;;;;;4866686;29;20044;-76
2023/09/14 05:21:58;;;;;;;12.65;2.63;;;;;;;;;;4870722;29;20156;-76
2023/09/14 05:24:24;;;;;;;5.65;2.80;;;;;;;;;;4872455;29;20496;-76
2023/09/14 05:26:51;;;;;;;8.25;2.67;;;;;;;;;;4870285;29;20182;-76
2023/09/14 05:29:17;;;;;;;4.75;3.08;;;;;;;;;;4868444;29;20677;-76
2023/09/14 05:31:43;;;;;;;7.70;2.85;;;;;;;;;;4869402;29;20179;-79
2023/09/14 05:34:09;;;;;;;8.43;2.80;;;;;;;;;;4869610;29;20452;-76
2023/09/14 05:36:36;;;;;;;5.18;2.65;;;;;;;;;;4868500;29;20176;-76
2023/09/14 05:39:02;;;;;;;7.32;2.97;;;;;;;;;;4862741;29;20059;-76
2023/09/14 05:41:28;;;;;;;6.13;3.20;;;;;;;;;;4867756;29;20063;-76
2023/09/14 05:43:54;;;;;;;6.07;2.65;;;;;;;;;;4864124;29;20075;-76
2023/09/14 05:46:20;;;;;;;5.68;2.95;;;;;;;;;;4868001;29;20100;-76
2023/09/14 05:48:46;;;;;;;2.95;2.63;;;;;;;;;;4868636;29;20074;-75
2023/09/14 05:51:12;;;;;;;4.25;2.80;;;;;;;;;;4864988;29;20143;-75
2023/09/14 05:53:38;;;;;;;6.13;2.92;;;;;;;;;;4868881;29;20183;-76
2023/09/14 05:56:04;;;;;;;6.63;2.67;;;;;;;;;;4871239;29;20076;-75
2023/09/14 05:58:30;;;;;;;5.60;3.17;;;;;;;;;;4850458;29;20437;-75
2023/09/14 06:00:56;;;;;;;5.90;3.17;;;;;;;;;;4866281;29;20458;-75
2023/09/14 06:03:22;;;;;;;11.10;3.30;;;;;;;;;;4872483;29;20053;-75
2023/09/14 06:05:49;;;;;;;5.20;3.60;;;;;;;;;;4876026;29;21588;-76
2023/09/14 06:08:15;;;;;;;8.18;3.28;;;;;;;;;;4870877;29;20413;-76
2023/09/14 06:10:41;;;;;;;8.60;3.53;;;;;;;;;;4874471;29;20057;-76
2023/09/14 06:13:07;;;;;;;5.53;3.55;;;;;;;;;;4869778;29;20057;-76
2023/09/14 06:15:33;;;;;;;13.50;4.15;;;;;;;;;;4875550;29;20389;-70
2023/09/14 06:17:59;;;;;;;5.32;3.22;;;;;;;;;;4875418;29;20063;-70
2023/09/14 06:20:25;;;;;;;8.57;4.68;;;;;;;;;;4871091;29;20040;-71
2023/09/14 06:22:51;;;;;;;11.43;3.40;;;;;;;;;;4879483;29;20052;-70
2023/09/14 06:25:17;;;;;;;6.20;2.90;;;;;;;;;;4869986;29;20060;-70
2023/09/14 06:27:44;;;;;;;6.07;3.08;;;;;;;;;;4867787;29;20079;-70
2023/09/14 06:30:10;;;;;;;7.95;3.22;;;;;;;;;;4867031;29;20048;-70
2023/09/14 06:32:36;;;;;;;6.63;3.42;;;;;;;;;;4868590;29;20052;-71
2023/09/14 06:35:02;;;;;;;6.65;3.50;;;;;;;;;;4862180;29;20777;-70
2023/09/14 06:37:28;;;;;;;7.82;3.17;;;;;;;;;;4885273;29;20508;-70
2023/09/14 06:39:54;;;;;;;4.60;3.20;;;;;;;;;;4872953;29;20087;-71
2023/09/14 06:42:21;;;;;;;4.80;2.95;;;;;;;;;;4869663;29;20052;-70
2023/09/14 06:44:47;;;;;;;7.75;3.13;;;;;;;;;;4872906;29;20787;-70
2023/09/14 06:47:13;;;;;;;8.55;3.03;;;;;;;;;;4870313;29;20044;-71
2023/09/14 06:49:39;;;;;;;13.70;2.90;;;;;;;;;;4869726;29;20753;-70
2023/09/14 06:52:05;;;;;;;8.32;3.05;;;;;;;;;;4864033;29;20124;-72
2023/09/14 06:54:31;;;;;;;9.98;4.43;;;;;;;;;;4868940;29;20056;-71
2023/09/14 06:56:58;;;;;;;10.23;2.83;;;;;;;;;;4867239;29;20151;-70
2023/09/14 06:59:24;;;;;;;9.48;2.90;;;;;;;;;;4864321;29;20559;-71
2023/09/14 07:01:50;;;;;;;9.38;2.83;;;;;;;;;;4864100;29;20056;-70
2023/09/14 07:04:16;;;;;;;10.10;2.80;;;;;;;;;;4868638;29;20517;-71
2023/09/14 07:06:42;;;;;;;8.10;2.85;;;;;;;;;;4850522;29;20049;-71
2023/09/14 07:09:09;;;;;;;6.78;2.65;;;;;;;;;;4865561;29;20103;-70
2023/09/14 07:11:35;;;;;;;6.60;2.45;;;;;;;;;;4867709;29;20045;-70
2023/09/14 07:14:03;;;;;;;5.45;2.42;;;;;;;;;;4866652;29;20416;-70
2023/09/14 07:16:29;;;;;;;8.40;2.40;;;;;;;;;;4870204;29;20053;-70
2023/09/14 07:18:55;;;;;;;12.68;3.70;;;;;;;;;;4869886;29;20051;-70
2023/09/14 07:21:21;;;;;;;7.63;2.78;;;;;;;;;;4878760;29;20052;-70
2023/09/14 07:23:47;;;;;;;5.30;2.30;;;;;;;;;;4870418;29;20052;-71
2023/09/14 07:26:13;;;;;;;5.13;2.42;;;;;;;;;;4868699;29;20766;-70
2023/09/14 07:28:39;;;;;;;6.30;2.22;;;;;;;;;;4869175;29;20060;-71
2023/09/14 07:31:06;;;;;;;7.78;1.83;;;;;;;;;;4868965;29;20040;-71
2023/09/14 07:33:32;;;;;;;5.57;1.95;;;;;;;;;;4870827;29;20056;-71
2023/09/14 07:35:59;;;;;;;7.30;2.30;;;;;;;;;;4867202;29;20083;-71
2023/09/14 07:38:25;;;;;;;5.70;1.70;;;;;;;;;;4869243;29;20056;-71
2023/09/14 07:40:51;;;;;;;3.60;1.58;;;;;;;;;;4865832;29;20057;-72
2023/09/14 07:43:17;;;;;;;9.35;2.13;;;;;;;;;;4869947;29;20198;-70
2023/09/14 07:45:43;;;;;;;5.43;1.70;;;;;;;;;;4868962;29;20057;-70
2023/09/14 07:48:10;;;;;;;7.45;1.60;;;;;;;;;;4874189;29;20048;-70
2023/09/14 07:50:39;;;;;;;9.63;1.88;;;;;;;;;;4871469;29;20049;-72
2023/09/14 07:53:05;;;;;;;6.13;2.20;;;;;;;;;;4872840;29;20072;-70
2023/09/14 07:55:31;;;;;;;4.22;1.92;;;;;;;;;;4871321;29;20050;-71
2023/09/14 07:57:57;;;;;;;10.23;2.75;;;;;;;;;;4866486;29;20055;-71
2023/09/14 08:00:24;;;;;;;5.35;1.50;;;;;;;;;;4872762;29;20164;-71
2023/09/14 08:02:50;;;;;;;5.95;1.92;;;;;;;;;;4870994;29;21955;-71
2023/09/14 08:05:16;;;;;;;8.65;2.78;;;;;;;;;;4872784;29;20052;-71
2023/09/14 08:07:42;;;;;;;5.07;1.60;;;;;;;;;;4871196;29;20048;-71
2023/09/14 08:10:09;;;;;;;5.47;2.03;;;;;;;;;;4873087;29;20049;-71
2023/09/14 08:12:38;;;;;;;6.82;2.00;;;;;;;;;;4871206;29;20059;-72
2023/09/14 08:15:05;;;;;;;4.32;1.80;;;;;;;;;;4873653;29;20044;-70
2023/09/14 08:17:31;;;;;;;7.72;1.80;;;;;;;;;;4871573;29;20052;-70
2023/09/14 08:19:57;;;;;;;10.23;2.17;;;;;;;;;;4871176;29;20056;-70
2023/09/14 08:22:23;;;;;;;6.53;2.15;;;;;;;;;;4871847;29;20059;-70
2023/09/14 08:24:50;;;;;;;7.63;2.03;;;;;;;;;;4873357;29;20048;-71
2023/09/14 08:27:16;;;;;;;3.35;1.80;;;;;;;;;;4876483;29;20545;-71
2023/09/14 08:29:46;;;;;;;3.92;1.73;;;;;;;;;;4878037;29;20041;-70
2023/09/14 08:32:12;;;;;;;5.22;1.95;;;;;;;;;;4877450;29;20259;-71
2023/09/14 08:34:38;;;;;;;7.28;1.80;;;;;;;;;;4877785;29;20068;-71
2023/09/14 08:37:07;;;;;;;3.08;1.45;;;;;;;;;;4877797;29;20067;-70
2023/09/14 08:39:33;;;;;;;6.05;1.50;;;;;;;;;;4878120;29;20134;-70
2023/09/14 08:41:59;;;;;;;4.75;1.40;;;;;;;;;;4878545;29;21039;-72
2023/09/14 08:44:25;;;;;;;6.25;1.45;;;;;;;;;;4878762;29;20115;-72
2023/09/14 08:46:52;;;;;;;5.88;1.52;;;;;;;;;;4887607;29;20055;-72
2023/09/14 08:49:19;;;;;;;7.20;2.60;;;;;;;;;;4878642;29;20143;-71
2023/09/14 08:51:46;;;;;;;12.30;1.65;;;;;;;;;;4878565;29;20040;-72
2023/09/14 08:54:12;;;;;;;12.38;1.92;;;;;;;;;;4875591;29;20208;-71
2023/09/14 08:56:39;;;;;;;4.13;1.65;;;;;;;;;;4874737;29;20049;-71
2023/09/14 08:59:06;;;;;;;10.90;1.65;;;;;;;;;;4874545;29;20051;-71
2023/09/14 09:01:34;;;;;;;10.18;1.73;;;;;;;;;;4876517;29;20040;-72
2023/09/14 09:04:00;;;;;;;9.55;1.88;;;;;;;;;;4877949;29;20442;-72
2023/09/14 09:06:26;;;;;;;8.50;1.60;;;;;;;;;;4879230;29;20171;-72
2023/09/14 09:08:52;;;;;;;11.13;2.00;;;;;;;;;;4877428;29;20087;-71
2023/09/14 09:11:18;;;;;;;15.60;2.78;;;;;;;;;;4871250;29;20072;-71
2023/09/14 09:13:46;;;;;;;8.57;1.70;;;;;;;;;;4875401;29;20055;-71
2023/09/14 09:16:12;;;;;;;5.80;1.60;;;;;;;;;;4875058;29;20464;-71
2023/09/14 09:18:57;;;;;;;5.43;1.33;;;;;;;;;;4874366;29;20056;-71
2023/09/14 09:21:30;;;;;;;3.13;1.05;;;;;;;;;;4878898;29;20667;-72
2023/09/14 09:23:57;;;;;;;7.67;1.53;;;;;;;;;;4874683;29;20671;-72
2023/09/14 09:26:23;;;;;;;6.97;1.45;;;;;;;;;;4873774;29;20082;-73
2023/09/14 09:28:49;;;;;;;15.65;1.70;;;;;;;;;;4872295;29;20052;-71
2023/09/14 09:31:16;;;;;;;4.63;1.30;;;;;;;;;;4876884;29;20060;-71
2023/09/14 09:33:47;;;;;;;2.28;0.88;;;;;;;;;;4872352;29;20052;-71
2023/09/14 09:36:14;;;;;;;4.38;1.20;;;;;;;;;;4874231;29;20168;-71
2023/09/14 09:38:40;;;;;;;3.10;0.95;;;;;;;;;;4875185;29;20065;-71
2023/09/14 09:41:10;;;;;;;7.22;1.77;;;;;;;;;;4877485;29;20094;-72
2023/09/14 09:43:37;;;;;;;3.60;1.15;;;;;;;;;;4877504;29;20108;-71
2023/09/14 09:46:03;;;;;;;3.33;1.05;;;;;;;;;;4872446;29;20040;-71
2023/09/14 09:48:30;;;;;;;5.60;1.17;;;;;;;;;;4876532;29;20048;-71
2023/09/14 09:50:57;;;;;;;2.30;1.20;;;;;;;;;;4876731;29;20045;-71
2023/09/14 09:53:23;;;;;;;3.55;1.20;;;;;;;;;;4883236;29;20770;-71
2023/09/14 09:55:51;;;;;;;4.28;1.33;;;;;;;;;;4872854;29;20044;-71
2023/09/14 09:58:18;;;;;;;3.10;1.00;;;;;;;;;;4872629;29;20433;-72
2023/09/14 10:00:45;;;;;;;2.95;1.13;;;;;;;;;;4874420;29;20296;-71
2023/09/14 10:03:15;;;;;;;3.83;1.08;;;;;;;;;;4882722;29;20112;-71
2023/09/14 10:05:42;;;;;;;3.95;1.20;;;;;;;;;;4870209;29;20607;-71
2023/09/14 10:08:16;;;;;;;3.45;1.60;;;;;;;;;;4861154;29;20052;-71
2023/09/14 10:10:50;;;;;;;2.30;0.90;;;;;;;;;;4877410;29;20049;-72
2023/09/14 10:13:17;;;;;;;6.97;1.42;;;;;;;;;;4876868;29;20087;-71
2023/09/14 10:15:43;;;;;;;7.35;1.20;;;;;;;;;;4860473;29;20060;-73
2023/09/14 10:18:10;;;;;;;4.00;1.40;;;;;;;;;;4868629;29;20048;-71
2023/09/14 10:20:36;;;;;;;5.35;1.50;;;;;;;;;;4875891;29;20442;-71
2023/09/14 10:23:03;;;;;;;5.82;1.85;;;;;;;;;;4842287;29;20417;-73
2023/09/14 10:25:29;;;;;;;3.03;1.00;;;;;;;;;;4874359;29;20048;-73
2023/09/14 10:27:55;;;;;;;6.63;1.38;;;;;;;;;;4854186;29;20056;-72
2023/09/14 10:30:22;;;;;;;5.68;1.30;;;;;;;;;;4874616;29;20062;-73
2023/09/14 10:32:49;;;;;;;2.88;1.13;;;;;;;;;;4875934;29;20057;-73
2023/09/14 10:35:17;;;;;;;5.80;1.15;;;;;;;;;;4876787;29;20497;-72
2023/09/14 10:37:45;;;;;;;4.30;0.90;;;;;;;;;;4877826;29;20064;-72
2023/09/14 10:40:14;;;;;;;3.05;1.17;;;;;;;;;;4876117;29;20056;-72
2023/09/14 10:42:44;;;;;;;8.48;1.50;;;;;;;;;;4876340;29;20458;-72
2023/09/14 10:45:11;;;;;;;3.10;1.10;;;;;;;;;;4873817;29;20049;-72
2023/09/14 10:47:40;;;;;;;3.53;1.10;;;;;;;;;;4876593;29;20051;-72
2023/09/14 10:50:07;;;;;;;5.25;1.38;;;;;;;;;;4875185;29;20064;-73
2023/09/14 10:52:34;;;;;;;3.95;1.30;;;;;;;;;;4875957;29;20602;-73
2023/09/14 10:55:00;;;;;;;6.05;1.60;;;;;;;;;;4875794;29;20036;-73
2023/09/14 10:57:27;;;;;;;4.20;1.35;;;;;;;;;;4877289;29;20048;-73
2023/09/14 11:00:01;;;;;;;3.25;1.42;;;;;;;;;;4875407;29;20057;-73
2023/09/14 11:02:42;;;;;;;9.85;1.50;;;;;;;;;;4876179;29;20502;-73
2023/09/14 11:05:15;;;;;;;6.22;1.45;;;;;;;;;;4874261;29;20056;-73
2023/09/14 11:07:44;;;;;;;4.05;1.35;;;;;;;;;;4877790;29;20041;-73
2023/09/14 11:10:14;;;;;;;3.85;1.65;;;;;;;;;;4876081;29;20052;-74
2023/09/14 11:12:40;;;;;;;5.53;1.40;;;;;;;;;;4874513;29;20052;-73
2023/09/14 11:15:14;;;;;;;6.22;1.73;;;;;;;;;;4876549;29;20124;-73
2023/09/14 11:17:43;;;;;;;4.38;1.40;;;;;;;;;;4873985;29;20053;-71
2023/09/14 11:20:25;;;;;;;6.43;1.70;;;;;;;;;;4875677;29;20055;-74
2023/09/14 11:22:51;;;;;;;4.97;1.20;;;;;;;;;;4873561;29;20059;-73
2023/09/14 11:25:28;;;;;;;7.28;1.75;;;;;;;;;;4873203;29;20147;-74
2023/09/14 11:27:54;;;;;;;6.53;1.50;;;;;;;;;;4874785;29;20044;-74
2023/09/14 11:30:20;;;;;;;4.22;1.70;;;;;;;;;;4867513;29;20505;-75
2023/09/14 11:32:48;;;;;;;7.90;1.80;;;;;;;;;;4871217;29;20481;-73
2023/09/14 11:35:14;;;;;;;3.08;1.55;;;;;;;;;;4873802;29;20041;-72
2023/09/14 11:37:40;;;;;;;6.43;1.88;;;;;;;;;;4871649;29;20134;-73
2023/09/14 11:40:16;;;;;;;4.65;2.00;;;;;;;;;;4878418;29;20044;-74
2023/09/14 11:43:01;;;;;;;6.22;1.98;;;;;;;;;;4890086;29;20169;-75
2023/09/14 11:45:27;;;;;;;7.85;2.15;;;;;;;;;;4856692;29;20064;-74
2023/09/14 11:47:53;;;;;;;3.10;1.63;;;;;;;;;;4883507;29;20074;-74
2023/09/14 11:50:20;;;;;;;5.43;1.75;;;;;;;;;;4858373;29;20100;-74
2023/09/14 11:52:47;;;;;;;6.22;2.20;;;;;;;;;;4875419;29;20071;-75
2023/09/14 11:55:20;;;;;;;5.10;1.90;;;;;;;;;;4883739;29;21907;-75
2023/09/14 11:57:46;;;;;;;7.03;2.10;;;;;;;;;;4875658;29;20494;-75
2023/09/14 12:00:12;;;;;;;6.75;1.50;;;;;;;;;;4883491;29;20053;-75
2023/09/14 12:02:38;;;;;;;4.00;1.67;;;;;;;;;;4873596;29;20779;-75
2023/09/14 12:05:05;;;;;;;12.25;2.33;;;;;;;;;;4875720;29;20056;-75
2023/09/14 12:07:31;;;;;;;7.47;2.17;;;;;;;;;;4874260;29;20124;-73
2023/09/14 12:09:59;;;;;;;6.82;1.65;;;;;;;;;;4880127;29;20423;-73
2023/09/14 12:12:29;;;;;;;5.82;2.10;;;;;;;;;;4871221;29;20719;-72
2023/09/14 12:14:57;;;;;;;5.40;1.80;;;;;;;;;;4871527;29;20188;-72
2023/09/14 12:17:27;;;;;;;6.75;1.70;;;;;;;;;;4871237;29;20072;-73
2023/09/14 12:19:58;;;;;;;6.32;1.98;;;;;;;;;;4871107;29;20055;-72
2023/09/14 12:22:25;;;;;;;4.78;1.85;;;;;;;;;;4869458;29;20040;-73
2023/09/14 12:24:52;;;;;;;9.13;2.28;;;;;;;;;;4872784;29;20107;-72
2023/09/14 12:27:18;;;;;;;4.63;1.58;;;;;;;;;;4874476;29;20063;-72
2023/09/14 12:29:45;;;;;;;11.10;1.85;;;;;;;;;;4872239;29;20052;-72
2023/09/14 12:32:12;;;;;;;4.85;1.90;;;;;;;;;;4874162;29;20063;-73
2023/09/14 12:34:38;;;;;;;4.50;1.55;;;;;;;;;;4873775;29;20076;-72
2023/09/14 12:37:05;;;;;;;5.68;2.35;;;;;;;;;;4875639;29;20529;-72
2023/09/14 12:39:32;;;;;;;7.18;2.08;;;;;;;;;;4875766;29;20063;-72
2023/09/14 12:42:00;;;;;;;7.35;2.30;;;;;;;;;;4872932;29;20527;-72
2023/09/14 12:44:27;;;;;;;6.45;2.08;;;;;;;;;;4849842;29;20056;-72
2023/09/14 12:46:53;;;;;;;8.40;2.40;;;;;;;;;;4882296;29;20151;-72
2023/09/14 12:49:19;;;;;;;7.15;2.30;;;;;;;;;;4874651;29;20057;-72
2023/09/14 12:51:49;;;;;;;7.43;1.92;;;;;;;;;;4874462;29;20044;-73
2023/09/14 12:54:18;;;;;;;7.32;2.15;;;;;;;;;;4858682;29;20048;-72
2023/09/14 12:56:44;;;;;;;4.78;2.15;;;;;;;;;;4874366;29;20040;-72
2023/09/14 12:59:11;;;;;;;11.10;2.45;;;;;;;;;;4873666;29;20144;-72
2023/09/14 13:01:39;;;;;;;5.03;2.00;;;;;;;;;;4871976;29;21030;-72
2023/09/14 13:04:05;;;;;;;7.57;2.25;;;;;;;;;;4873506;29;20052;-72
2023/09/14 13:06:32;;;;;;;7.40;1.90;;;;;;;;;;4871259;29;20051;-72
2023/09/14 13:08:58;;;;;;;4.32;1.92;;;;;;;;;;4873785;29;20052;-73
2023/09/14 13:11:31;;;;;;;10.40;2.05;;;;;;;;;;4874747;29;20056;-72
2023/09/14 13:13:57;;;;;;;4.82;2.10;;;;;;;;;;4877977;29;20374;-72
2023/09/14 13:16:26;;;;;;;5.15;2.42;;;;;;;;;;4879691;29;20083;-72
2023/09/14 13:18:52;;;;;;;4.43;2.22;;;;;;;;;;4876537;29;20056;-72
2023/09/14 13:21:18;;;;;;;4.40;2.05;;;;;;;;;;4880503;29;20722;-72
2023/09/14 13:23:45;;;;;;;5.22;2.03;;;;;;;;;;4879454;29;20164;-73
2023/09/14 13:26:11;;;;;;;6.28;2.60;;;;;;;;;;4876047;29;20370;-73
2023/09/14 13:28:37;;;;;;;4.78;2.10;;;;;;;;;;4875894;29;20053;-73
2023/09/14 13:31:04;;;;;;;6.53;2.67;;;;;;;;;;4877752;29;20060;-72
2023/09/14 13:33:30;;;;;;;3.92;2.03;;;;;;;;;;4875825;29;20053;-72
2023/09/14 13:36:00;;;;;;;8.15;1.90;;;;;;;;;;4878384;29;20041;-72
2023/09/14 13:38:27;;;;;;;3.90;2.22;;;;;;;;;;4877345;29;20061;-72
2023/09/14 13:40:54;;;;;;;5.57;2.03;;;;;;;;;;4875316;29;21376;-71
2023/09/14 13:43:20;;;;;;;6.00;2.00;;;;;;;;;;4876683;29;20135;-74
2023/09/14 13:45:46;;;;;;;7.93;2.35;;;;;;;;;;4863016;29;20059;-74
2023/09/14 13:48:13;;;;;;;4.25;1.95;;;;;;;;;;4878647;29;22018;-75
2023/09/14 13:50:39;;;;;;;5.53;2.00;;;;;;;;;;4861298;29;20076;-73
2023/09/14 13:53:08;;;;;;;6.82;2.33;;;;;;;;;;4878036;29;21794;-73
2023/09/14 13:55:34;;;;;;;5.15;2.15;;;;;;;;;;4877452;29;20568;-72
2023/09/14 13:58:00;;;;;;;8.23;2.35;;;;;;;;;;4875889;29;20076;-73
2023/09/14 14:00:26;;;;;;;6.43;2.22;;;;;;;;;;4861834;29;20040;-73
2023/09/14 14:03:06;;;;;;;5.10;2.10;;;;;;;;;;4876009;29;20064;-72
2023/09/14 14:05:32;;;;;;;7.13;2.35;;;;;;;;;;4877799;29;20700;-73
2023/09/14 14:07:58;;;;;;;5.78;2.15;;;;;;;;;;4877684;29;20957;-72
2023/09/14 14:10:24;;;;;;;8.23;2.40;;;;;;;;;;4872569;29;20052;-73
2023/09/14 14:12:51;;;;;;;11.82;2.42;;;;;;;;;;4867111;29;20096;-74
2023/09/14 14:15:17;;;;;;;6.65;2.47;;;;;;;;;;4874485;29;20052;-72
2023/09/14 14:17:43;;;;;;;10.50;2.40;;;;;;;;;;4877959;29;20044;-72
2023/09/14 14:20:09;;;;;;;5.82;2.60;;;;;;;;;;4877630;29;20167;-74
2023/09/14 14:22:35;;;;;;;6.18;2.22;;;;;;;;;;4876414;29;20056;-74
2023/09/14 14:25:03;;;;;;;5.05;2.15;;;;;;;;;;4875132;29;20084;-73
2023/09/14 14:27:29;;;;;;;4.90;2.05;;;;;;;;;;4876346;29;20446;-73
2023/09/14 14:29:55;;;;;;;6.53;3.13;;;;;;;;;;4876289;29;20044;-75
2023/09/14 14:32:21;;;;;;;6.70;2.97;;;;;;;;;;4859690;29;20131;-74
2023/09/14 14:34:47;;;;;;;6.75;2.35;;;;;;;;;;4857785;29;20092;-74
2023/09/14 14:37:13;;;;;;;5.63;2.40;;;;;;;;;;4870700;29;20056;-74
2023/09/14 14:39:39;;;;;;;6.68;2.00;;;;;;;;;;4872009;29;20969;-73